Time;durP1;ratioP1;P1;durP2;ratioP2;P2;SDS_P1;SDS_P2;PMS_P1;PMS_P2;Temp;Humidity;BMP_temperature;BMP_pressure;BME280_temperature;BME280_humidity;BME280_pressure;Samples;Min_cycle;Max_cycle;Signal;HPM_P1;HPM_P2
2023/10/30 00:01:41;;;;;;;7.03;1.55;;;8.40;99.90;;;-144.05;72.02;56986.91;5012547;28;20526;-79
2023/10/30 00:04:07;;;;;;;8.57;1.23;;;;;;;-144.05;71.58;56980.53;5012188;28;20026;-80
2023/10/30 00:06:33;;;;;;;10.38;1.50;;;8.10;99.90;;;-144.05;71.70;56999.63;5011930;28;20061;-80
2023/10/30 00:08:59;;;;;;;6.45;1.10;;;8.30;99.90;;;-144.05;71.97;56969.91;5012088;28;20030;-78
2023/10/30 00:11:25;;;;;;;7.50;1.30;;;8.30;99.90;;;-144.05;71.94;56965.66;5012097;28;20441;-79
2023/10/30 00:13:51;;;;;;;6.57;1.17;;;;;;;-144.05;72.02;57023.00;4994412;28;20038;-79
2023/10/30 00:16:17;;;;;;;7.40;1.50;;;8.00;99.90;;;-144.05;72.48;56989.00;5012094;28;20050;-79
2023/10/30 00:18:43;;;;;;;8.65;1.17;;;;;;;-144.05;71.96;56993.25;5014261;28;20030;-82
2023/10/30 00:21:09;;;;;;;4.57;1.40;;;8.30;99.90;;;-144.05;72.31;56991.13;5015383;28;20029;-81
2023/10/30 00:23:36;;;;;;;11.63;2.38;;;15.30;99.90;;;-144.05;71.62;56999.63;5014568;28;20102;-82
2023/10/30 00:26:03;;;;;;;7.63;1.27;;;8.40;99.90;;;-144.05;71.29;57014.50;5014129;28;20026;-79
2023/10/30 00:28:31;;;;;;;6.78;1.40;;;;;;;-144.05;71.86;57018.75;5012584;28;20029;-80
2023/10/30 00:30:57;;;;;;;8.13;1.13;;;;;;;-144.05;71.54;56969.91;5012559;28;20036;-78
2023/10/30 00:33:23;;;;;;;7.47;1.38;;;;;;;-144.05;71.65;56982.66;4994318;28;20021;-79
2023/10/30 00:35:49;;;;;;;5.05;1.25;;;;;;;-144.05;71.70;57014.50;5011998;28;20030;-77
2023/10/30 00:38:16;;;;;;;4.85;1.67;;;;;;;-144.05;71.20;56984.78;5011934;28;20034;-77
2023/10/30 00:40:42;;;;;;;7.65;1.42;;;;;;;-144.05;71.44;57033.63;5011705;28;20030;-78
2023/10/30 00:43:08;;;;;;;7.45;1.70;;;15.30;99.90;;;-144.05;71.69;57018.75;5011538;28;20430;-79
2023/10/30 00:45:34;;;;;;;7.63;1.50;;;;;;;-144.05;71.90;57025.13;5011536;28;20053;-79
2023/10/30 00:48:00;;;;;;;11.85;1.60;;;;;;;-144.05;71.79;57001.75;5011400;28;20056;-80
2023/10/30 00:50:26;;;;;;;10.95;1.95;;;;;;;-144.05;71.74;56991.13;5011443;28;20493;-77
2023/10/30 00:52:52;;;;;;;8.82;1.50;;;;;;;-144.05;72.63;56993.25;5011346;28;20034;-79
2023/10/30 00:55:19;;;;;;;10.43;1.92;;;;;;;-144.05;72.02;57014.50;4993861;28;20395;-77
2023/10/30 00:57:45;;;;;;;11.85;1.65;;;8.40;99.90;;;-144.05;71.32;56997.50;5011839;28;20033;-78
2023/10/30 01:00:11;;;;;;;5.72;1.27;;;;;;;-144.05;71.49;57018.75;5011660;28;20080;-77
2023/10/30 01:02:39;;;;;;;11.88;1.45;;;8.60;99.90;;;-144.05;71.74;56989.00;5011750;28;20096;-79
2023/10/30 01:05:08;;;;;;;7.68;1.65;;;;;;;-144.05;71.88;57008.13;5011521;28;20053;-77
2023/10/30 01:07:34;;;;;;;8.98;1.40;;;8.60;99.90;;;-144.05;71.85;56986.91;5011420;28;20396;-78
2023/10/30 01:10:00;;;;;;;10.27;1.63;;;8.00;99.90;;;-144.05;71.75;56982.66;5011071;28;20087;-78
2023/10/30 01:12:26;;;;;;;9.50;1.95;;;15.30;99.90;;;-144.05;71.70;56991.13;5011058;28;20030;-77
2023/10/30 01:14:52;;;;;;;11.55;2.33;;;8.80;99.90;;;-144.05;71.92;57018.75;5011117;28;20044;-78
2023/10/30 01:17:18;;;;;;;9.20;1.42;;;8.20;99.90;;;-144.05;72.15;56980.53;5011104;28;20025;-76
2023/10/30 01:19:44;;;;;;;6.47;1.45;;;15.80;99.90;;;-144.05;71.48;56984.78;5010251;28;20026;-78
2023/10/30 01:22:10;;;;;;;11.55;2.05;;;15.30;99.90;;;-144.05;71.66;56965.66;5011107;28;20041;-79
2023/10/30 01:24:36;;;;;;;8.80;1.30;;;8.80;99.90;;;-144.05;71.04;56991.13;5010862;28;20030;-78
2023/10/30 01:27:04;;;;;;;5.60;1.88;;;;;;;-144.05;71.79;56997.50;5011085;28;20152;-78
2023/10/30 01:29:30;;;;;;;4.63;1.08;;;8.50;99.90;;;-144.05;71.67;56991.13;5010996;28;20092;-78
2023/10/30 01:31:56;;;;;;;7.47;1.25;;;;;;;-144.05;71.52;57010.25;5011066;28;20022;-77
2023/10/30 01:34:22;;;;;;;7.47;1.73;;;;;;;-144.05;71.50;56969.91;5010756;28;20029;-78
2023/10/30 01:36:48;;;;;;;7.97;1.23;;;15.20;99.90;;;-144.05;72.06;57003.88;4993472;28;20053;-79
2023/10/30 01:39:15;;;;;;;8.27;1.23;;;;;;;-144.05;71.20;57001.75;4993209;28;20503;-79
2023/10/30 01:41:42;;;;;;;13.20;1.80;;;8.70;99.90;;;-144.05;71.32;56980.53;5010957;28;20099;-78
2023/10/30 01:44:08;;;;;;;8.95;2.03;;;;;;;-144.05;71.09;56999.63;5010817;28;20091;-76
2023/10/30 01:46:34;;;;;;;8.52;1.50;;;;;;;-144.05;71.23;56997.50;5012033;28;20037;-81
2023/10/30 01:49:00;;;;;;;7.78;1.17;;;8.60;99.90;;;-144.05;71.72;56957.16;5012641;28;20122;-80
2023/10/30 01:51:26;;;;;;;9.15;1.33;;;12.50;99.90;;;-144.05;71.93;56997.50;5011743;28;20076;-78
2023/10/30 01:53:54;;;;;;;6.72;1.73;;;;;;;-144.05;71.99;57008.13;5011489;28;20057;-78
2023/10/30 01:56:20;;;;;;;7.60;1.23;;;;;;;-144.05;71.62;57031.50;5010987;28;20032;-79
2023/10/30 01:58:47;;;;;;;6.28;1.67;;;;;;;-144.05;71.49;56997.50;5010873;28;20030;-79
2023/10/30 02:01:13;;;;;;;7.30;2.20;;;8.80;99.90;;;-144.05;71.81;56974.16;5011002;28;20026;-79
2023/10/30 02:03:39;;;;;;;3.97;1.15;;;9.10;99.90;;;-144.05;71.62;56969.91;5010891;28;20046;-80
2023/10/30 02:06:06;;;;;;;8.70;1.60;;;;;;;-144.05;72.18;56989.00;5010970;28;20394;-77
2023/10/30 02:08:32;;;;;;;8.80;1.52;;;8.50;99.90;;;-144.05;72.34;56982.66;5010803;28;20060;-78
2023/10/30 02:10:58;;;;;;;7.93;1.60;;;15.50;99.90;;;-144.05;72.55;56980.53;5010655;28;20044;-78
2023/10/30 02:13:24;;;;;;;7.72;1.58;;;;;;;-144.05;71.32;56984.78;5010509;28;20026;-76
2023/10/30 02:15:51;;;;;;;6.07;1.13;;;;;;;-144.05;71.60;56993.25;5010984;28;20030;-76
2023/10/30 02:18:17;;;;;;;10.55;2.28;;;;;;;-144.05;71.35;56972.03;5010817;28;20045;-78
2023/10/30 02:20:43;;;;;;;8.50;1.48;;;8.60;99.90;;;-144.05;72.37;57014.50;5010991;28;20052;-78
2023/10/30 02:23:09;;;;;;;7.72;1.50;;;;;;;-144.05;72.61;57006.00;5010911;28;20503;-78
2023/10/30 02:25:35;;;;;;;7.97;1.77;;;;;;;-144.05;72.21;56969.91;5011052;28;20363;-79
2023/10/30 02:28:02;;;;;;;9.73;1.48;;;;;;;-144.05;72.59;56997.50;5011018;28;20034;-78
2023/10/30 02:30:28;;;;;;;10.40;1.83;;;8.90;99.90;;;-144.05;72.86;57006.00;5012618;28;20464;-78
2023/10/30 02:32:54;;;;;;;9.75;1.30;;;8.60;99.90;;;-144.05;72.47;56993.25;5014627;28;20022;-77
2023/10/30 02:35:21;;;;;;;11.07;1.50;;;;;;;-144.05;72.96;56991.13;5016034;28;20080;-80
2023/10/30 02:37:47;;;;;;;6.18;1.23;;;15.40;99.90;;;-144.05;72.69;56995.38;5014514;28;20040;-79
2023/10/30 02:40:14;;;;;;;6.47;1.52;;;;;;;-144.05;72.43;56980.53;5014761;28;20274;-79
2023/10/30 02:42:41;;;;;;;7.07;1.17;;;8.00;99.90;;;-144.05;72.75;56989.00;5014516;28;20026;-79
2023/10/30 02:45:08;;;;;;;5.75;1.23;;;15.70;99.90;;;-144.05;72.51;57001.75;5014287;28;20030;-77
2023/10/30 02:47:35;;;;;;;6.20;1.52;;;;;;;-144.05;73.05;57001.75;5013836;28;20543;-80
2023/10/30 02:50:01;;;;;;;7.00;1.33;;;;;;;-144.05;73.08;56980.53;5013682;28;20034;-77
2023/10/30 02:52:30;;;;;;;10.30;2.13;;;8.80;99.90;;;-144.05;73.47;56967.78;5013849;28;20391;-75
2023/10/30 02:54:56;;;;;;;4.88;1.67;;;9.70;99.90;;;-144.05;73.62;57001.75;5013679;28;20109;-80
2023/10/30 02:57:22;;;;;;;7.88;1.90;;;8.60;99.90;;;-144.05;73.36;56969.91;5013733;28;20057;-76
2023/10/30 02:59:48;;;;;;;9.75;1.77;;;15.40;99.90;;;-144.05;73.61;56980.53;4996064;28;20026;-78
2023/10/30 03:02:14;;;;;;;10.82;1.85;;;8.50;99.90;;;-144.05;73.65;56972.03;5014953;28;20143;-80
2023/10/30 03:04:39;;;;;;;9.43;1.65;;;8.80;99.90;;;-144.05;73.73;56967.78;4997326;28;20022;-80
2023/10/30 03:07:05;;;;;;;6.20;1.80;;;8.50;99.90;;;-144.05;73.55;56993.25;5014960;28;20403;-81
2023/10/30 03:09:37;;;;;;;12.30;1.63;;;12.20;99.90;;;-144.05;73.15;56984.78;5015252;28;20030;-79
2023/10/30 03:12:04;;;;;;;7.30;1.35;;;8.60;99.90;;;-144.05;73.37;57010.25;5015620;28;20042;-81
2023/10/30 03:14:31;;;;;;;10.40;1.83;;;;;;;-144.05;73.40;57014.50;5015080;28;20073;-81
2023/10/30 03:16:57;;;;;;;7.00;1.45;;;;;;;-144.05;72.88;56997.50;5015074;28;20026;-79
2023/10/30 03:19:23;;;;;;;4.10;1.08;;;8.60;99.90;;;-144.05;72.93;56972.03;5015265;28;20034;-80
2023/10/30 03:21:49;;;;;;;8.93;1.63;;;;;;;-144.05;73.07;56978.41;5016000;28;20117;-80
2023/10/30 03:24:15;;;;;;;6.45;1.33;;;8.60;99.90;;;-144.05;73.22;57033.63;5015541;28;20510;-79
2023/10/30 03:26:42;;;;;;;8.82;1.60;;;8.10;99.90;;;-144.05;73.50;56997.50;5015578;28;20034;-82
2023/10/30 03:29:08;;;;;;;9.82;1.83;;;;;;;-144.05;73.61;56995.38;5015675;28;20052;-80
2023/10/30 03:31:34;;;;;;;9.95;1.48;;;;;;;-144.05;73.11;57023.00;5016119;28;20371;-79
2023/10/30 03:34:00;;;;;;;8.20;1.38;;;15.50;99.90;;;-144.05;73.82;56995.38;5016472;28;20034;-81
2023/10/30 03:36:28;;;;;;;13.15;2.22;;;15.50;99.90;;;-144.05;73.31;56980.53;5016463;28;20042;-81
2023/10/30 03:38:55;;;;;;;5.95;1.30;;;;;;;-144.05;73.64;56997.50;5021039;28;20495;-81
2023/10/30 03:41:21;;;;;;;5.90;1.20;;;8.40;99.90;;;-144.05;74.02;56993.25;5022550;28;20030;-80
2023/10/30 03:43:47;;;;;;;11.18;2.05;;;;;;;-144.05;74.07;56980.53;5019591;28;20085;-82
2023/10/30 03:46:13;;;;;;;12.93;1.98;;;15.50;99.90;;;-144.05;74.16;56965.66;5016385;28;20411;-78
2023/10/30 03:48:39;;;;;;;8.45;1.25;;;15.30;99.90;;;-144.05;73.50;56999.63;5012801;28;20133;-78
2023/10/30 03:51:05;;;;;;;8.63;1.25;;;8.20;99.90;;;-144.05;73.52;56967.78;5012584;28;20038;-77
2023/10/30 03:53:32;;;;;;;9.38;2.00;;;15.30;99.90;;;-144.05;73.64;57018.75;5012503;28;20052;-78
2023/10/30 03:55:58;;;;;;;8.50;1.30;;;8.10;99.90;;;-144.05;73.50;56969.91;5012291;28;20071;-78
2023/10/30 03:58:25;;;;;;;5.53;1.17;;;12.00;99.90;;;-144.05;73.55;57003.88;5012143;28;20022;-78
2023/10/30 04:00:52;;;;;;;7.68;1.42;;;;;;;-144.05;74.11;56999.63;5012740;28;20118;-82
2023/10/30 04:03:18;;;;;;;12.88;1.48;;;;;;;-144.05;73.76;57006.00;5014274;28;20173;-80
2023/10/30 04:05:44;;;;;;;6.38;1.02;;;;;;;-144.05;73.27;56993.25;5012989;28;20026;-80
2023/10/30 04:08:10;;;;;;;8.18;1.70;;;15.20;99.90;;;-144.05;74.07;56995.38;5013537;28;20077;-80
2023/10/30 04:10:36;;;;;;;5.47;1.55;;;8.30;99.90;;;-144.05;74.09;57006.00;5013041;28;20455;-78
2023/10/30 04:13:02;;;;;;;8.82;1.98;;;;;;;-144.05;74.07;57003.88;5012817;28;20029;-79
2023/10/30 04:15:28;;;;;;;11.00;2.10;;;;;;;-144.05;74.38;56997.50;4994361;28;20058;-77
2023/10/30 04:17:56;;;;;;;10.50;1.50;;;15.40;99.90;;;-144.05;73.93;57016.63;5012100;28;20517;-77
2023/10/30 04:20:22;;;;;;;6.15;1.70;;;8.20;99.90;;;-144.05;74.67;56959.28;5011842;28;20037;-77
2023/10/30 04:22:49;;;;;;;6.40;1.45;;;;;;;-144.05;74.55;57018.75;5011771;28;20052;-78
2023/10/30 04:25:17;;;;;;;6.25;1.10;;;15.50;99.90;;;-144.05;74.47;56982.66;5011753;28;20106;-78
2023/10/30 04:27:43;;;;;;;7.68;1.58;;;;;;;-144.05;74.17;57003.88;5011947;28;20030;-77
2023/10/30 04:30:10;;;;;;;6.90;1.42;;;8.50;99.90;;;-144.05;73.82;56986.91;5011513;28;20375;-78
2023/10/30 04:32:36;;;;;;;9.57;1.92;;;8.10;99.90;;;-144.05;74.09;56986.91;5011545;28;20026;-78
2023/10/30 04:35:02;;;;;;;13.63;1.27;;;8.20;99.90;;;-144.05;74.07;57010.25;5011657;28;20088;-78
2023/10/30 04:37:28;;;;;;;10.13;2.13;;;8.70;99.90;;;-144.05;74.66;56955.03;5011671;28;20022;-77
2023/10/30 04:39:54;;;;;;;6.40;1.83;;;7.90;99.90;;;-144.05;74.21;56984.78;5011510;28;20096;-77
2023/10/30 04:42:20;;;;;;;8.70;1.60;;;8.60;99.90;;;-144.05;74.35;57025.13;5011556;28;20037;-76
2023/10/30 04:44:45;;;;;;;4.85;1.60;;;8.50;99.90;;;-144.05;73.45;56980.53;5011359;28;20030;-77
2023/10/30 04:47:12;;;;;;;10.43;2.33;;;15.50;99.90;;;-144.05;74.34;56984.78;5011283;28;20029;-77
2023/10/30 04:49:38;;;;;;;10.65;1.80;;;;;;;-144.05;74.06;57016.63;5011139;28;20109;-77
2023/10/30 04:52:04;;;;;;;9.93;2.35;;;8.90;99.90;;;-144.05;74.11;56984.78;5011421;28;20026;-78
2023/10/30 04:54:31;;;;;;;8.15;1.83;;;;;;;-144.05;74.47;57010.25;5010946;28;20112;-77
2023/10/30 04:56:57;;;;;;;11.27;1.70;;;;;;;-144.05;74.83;56980.53;5011256;28;20057;-80
2023/10/30 04:59:23;;;;;;;10.57;1.83;;;15.10;99.90;;;-144.05;74.25;56942.28;5011207;28;20502;-78
2023/10/30 05:01:48;;;;;;;6.85;1.48;;;14.60;99.90;;;-144.05;74.11;56974.16;5011219;28;20033;-76
2023/10/30 05:04:17;;;;;;;5.50;1.50;;;8.50;99.90;;;-144.05;74.46;56999.63;5011074;28;20037;-77
2023/10/30 05:06:43;;;;;;;6.82;1.17;;;8.80;99.90;;;-144.05;74.17;56976.28;5011142;28;20030;-76
2023/10/30 05:09:10;;;;;;;7.25;1.90;;;;;;;-144.05;74.37;56984.78;5011054;28;20080;-77
2023/10/30 05:11:39;;;;;;;7.55;1.42;;;11.80;99.90;;;-144.05;74.22;56980.53;5011245;28;20025;-78
2023/10/30 05:14:07;;;;;;;14.85;1.85;;;8.70;99.90;;;-144.05;74.93;57001.75;5010892;28;20172;-78
2023/10/30 05:16:33;;;;;;;7.60;2.28;;;;;;;-144.05;74.62;56995.38;5011099;28;20079;-78
2023/10/30 05:19:00;;;;;;;8.02;1.50;;;;;;;-144.05;74.80;56984.78;5010910;28;20030;-77
2023/10/30 05:21:26;;;;;;;10.73;1.58;;;;;;;-144.05;74.95;56997.50;5011158;28;20151;-78
2023/10/30 05:23:53;;;;;;;8.32;1.35;;;;;;;-144.05;75.18;56993.25;5010717;28;20169;-77
2023/10/30 05:26:19;;;;;;;11.10;1.40;;;;;;;-144.05;74.71;56997.50;5010834;28;20037;-78
2023/10/30 05:28:45;;;;;;;8.63;1.40;;;8.10;99.90;;;-144.05;75.19;56993.25;5010972;28;20026;-78
2023/10/30 05:31:11;;;;;;;7.95;1.40;;;8.30;99.90;;;-144.05;75.15;56961.41;5010752;28;20030;-77
2023/10/30 05:33:37;;;;;;;6.22;1.38;;;7.60;99.90;;;-144.05;74.76;56991.13;5010762;28;20108;-76
2023/10/30 05:36:04;;;;;;;8.43;1.63;;;8.00;99.90;;;-144.05;74.45;56984.78;5010941;28;20033;-78
2023/10/30 05:38:30;;;;;;;8.50;1.45;;;;;;;-144.05;74.53;56984.78;5010676;28;20113;-78
2023/10/30 05:40:57;;;;;;;8.10;1.77;;;8.20;99.90;;;-144.05;75.34;56984.78;4993313;28;20091;-78
2023/10/30 05:43:23;;;;;;;10.35;2.15;;;8.10;99.90;;;-144.05;74.91;56976.28;5011280;28;20097;-75
2023/10/30 05:45:49;;;;;;;5.60;1.48;;;;;;;-144.05;75.29;57006.00;5011142;28;20089;-77
2023/10/30 05:48:16;;;;;;;6.68;1.23;;;8.50;99.90;;;-144.05;74.76;56997.50;5010930;28;20116;-77
2023/10/30 05:50:42;;;;;;;8.93;1.25;;;;;;;-144.05;75.07;57003.88;5010855;28;20026;-78
2023/10/30 05:53:08;;;;;;;7.63;1.50;;;8.10;99.90;;;-144.05;75.32;56976.28;5010808;28;20041;-78
2023/10/30 05:55:35;;;;;;;7.65;1.65;;;;;;;-144.05;75.88;57018.75;5010709;28;20058;-78
2023/10/30 05:58:01;;;;;;;12.00;1.83;;;;;;;-144.05;75.53;56989.00;5010993;28;20034;-79
2023/10/30 06:00:29;;;;;;;7.38;1.55;;;;;;;-144.05;75.23;57018.75;5010644;28;20041;-77
2023/10/30 06:02:55;;;;;;;10.63;1.85;;;8.90;99.90;;;-144.05;75.30;56991.13;5010840;28;20034;-79
2023/10/30 06:05:22;;;;;;;8.93;2.33;;;;;;;-144.05;75.48;57010.25;5011936;28;20064;-78
2023/10/30 06:07:48;;;;;;;15.90;1.38;;;7.90;99.90;;;-144.05;75.18;56997.50;4997014;28;20037;-80
2023/10/30 06:10:14;;;;;;;10.02;1.35;;;15.50;99.90;;;-144.05;75.45;56993.25;5014526;28;20105;-78
2023/10/30 06:12:40;;;;;;;14.70;1.38;;;15.20;99.90;;;-144.05;75.42;56972.03;5014852;28;20033;-78
2023/10/30 06:15:09;;;;;;;10.85;1.55;;;12.70;99.90;;;-144.05;75.08;56993.25;5015197;28;20126;-78
2023/10/30 06:17:35;;;;;;;8.10;1.50;;;15.40;99.90;;;-144.05;75.13;56993.25;5015080;28;20614;-78
2023/10/30 06:20:03;;;;;;;8.75;1.40;;;;;;;-144.05;75.30;57018.75;5015062;28;20122;-79
2023/10/30 06:22:29;;;;;;;8.23;1.33;;;8.00;99.90;;;-144.05;75.35;57006.00;5014853;28;20498;-79
2023/10/30 06:24:55;;;;;;;5.43;1.20;;;;;;;-144.05;74.73;56980.53;5014844;28;20042;-78
2023/10/30 06:27:21;;;;;;;11.00;1.92;;;8.00;99.90;;;-144.05;75.38;56984.78;5014614;28;20022;-80
2023/10/30 06:29:47;;;;;;;7.63;1.25;;;8.10;99.90;;;-144.05;74.81;56972.03;5014491;28;20513;-79
2023/10/30 06:32:13;;;;;;;10.10;2.03;;;;;;;-144.05;75.48;57012.38;5014271;28;20033;-80
2023/10/30 06:34:41;;;;;;;6.50;1.60;;;;;;;-144.05;75.00;56997.50;5014114;28;20463;-77
2023/10/30 06:37:06;;;;;;;8.40;1.30;;;8.70;99.90;;;-144.05;74.66;56969.91;5014013;28;20495;-78
2023/10/30 06:39:33;;;;;;;8.57;1.65;;;;;;;-144.05;75.04;56995.38;5016231;28;20037;-80
2023/10/30 06:41:59;;;;;;;8.75;1.85;;;;;;;-144.05;75.23;57014.50;5016174;28;20080;-78
2023/10/30 06:44:25;;;;;;;16.77;1.85;;;9.00;99.90;;;-144.05;75.42;56982.66;5016030;28;20109;-78
2023/10/30 06:46:51;;;;;;;7.30;1.75;;;9.10;99.90;;;-144.05;74.64;57018.75;5016061;28;20053;-81
2023/10/30 06:49:18;;;;;;;7.32;1.40;;;8.50;99.90;;;-144.05;74.86;56995.38;5015985;28;20422;-78
2023/10/30 06:51:44;;;;;;;8.98;1.38;;;8.30;99.90;;;-144.05;74.58;56997.50;5016322;28;20030;-77
2023/10/30 06:54:12;;;;;;;11.98;1.70;;;8.20;99.90;;;-144.05;75.18;57003.88;5015993;28;20036;-78
2023/10/30 06:56:38;;;;;;;7.57;1.27;;;;;;;-144.05;75.62;57016.63;5016118;28;20092;-77
2023/10/30 06:59:05;;;;;;;8.63;1.83;;;8.50;99.90;;;-144.05;75.75;56999.63;4999607;28;20400;-77
2023/10/30 07:01:46;;;;;;;6.43;1.77;;;8.30;99.90;;;-144.05;74.60;56989.00;5017169;28;20034;-80
2023/10/30 07:04:15;;;;;;;5.40;1.25;;;15.10;99.90;;;-144.05;75.54;56993.25;5017391;28;20029;-77
2023/10/30 07:06:43;;;;;;;7.43;1.80;;;11.70;99.90;;;-144.05;76.67;56986.91;5017938;28;20049;-80
2023/10/30 07:09:12;;;;;;;7.85;1.45;;;8.30;99.90;;;-144.05;76.14;57025.13;5015698;28;20028;-79
2023/10/30 07:11:42;;;;;;;6.65;1.40;;;8.10;99.90;;;-144.05;76.14;56980.53;5015542;28;20548;-79
2023/10/30 07:14:08;;;;;;;9.10;1.23;;;8.30;99.90;;;-144.05;76.32;57003.88;5015162;28;20037;-79
2023/10/30 07:16:35;;;;;;;7.10;1.83;;;8.30;99.90;;;-144.05;75.75;56972.03;5014687;28;20018;-78
2023/10/30 07:19:02;;;;;;;9.48;1.50;;;;;;;-144.05;75.79;56984.78;5015423;28;20607;-81
2023/10/30 07:21:29;;;;;;;13.45;1.63;;;8.30;99.90;;;-144.05;76.34;56984.78;5014899;28;20034;-78
2023/10/30 07:23:55;;;;;;;20.45;3.33;;;15.30;99.90;;;-144.05;76.79;57003.88;5014799;28;20027;-79
2023/10/30 07:26:22;;;;;;;6.30;1.42;;;;;;;-144.05;76.20;56997.50;5014901;28;20045;-79
2023/10/30 07:28:49;;;;;;;6.60;1.80;;;8.30;99.90;;;-144.05;76.29;56972.03;5014693;28;20025;-79
2023/10/30 07:31:19;;;;;;;14.95;3.20;;;8.20;99.90;;;-144.05;76.52;56967.78;4997001;28;20034;-78
2023/10/30 07:33:46;;;;;;;7.45;1.90;;;8.50;99.90;;;-144.05;77.09;56972.03;5015306;28;20054;-77
2023/10/30 07:36:12;;;;;;;7.55;1.90;;;;;;;-144.05;76.46;57001.75;5014950;28;20175;-80
2023/10/30 07:38:39;;;;;;;9.43;1.90;;;;;;;-144.05;76.96;56984.78;5015006;28;20026;-79
2023/10/30 07:41:05;;;;;;;8.93;1.77;;;;;;;-144.05;76.81;57018.75;5014299;28;20022;-79
2023/10/30 07:43:31;;;;;;;8.13;1.65;;;8.80;99.90;;;-144.05;76.88;56961.41;5014479;28;20188;-79
2023/10/30 07:45:57;;;;;;;6.57;1.83;;;8.20;99.90;;;-144.05;76.19;56976.28;4993201;28;20074;-79
2023/10/30 07:48:26;;;;;;;7.88;2.00;;;;;;;-144.05;75.70;56978.41;5013897;28;20025;-78
2023/10/30 07:50:53;;;;;;;9.35;1.75;;;8.80;99.90;;;-144.05;74.91;56976.28;5015162;28;20034;-79
2023/10/30 07:53:19;;;;;;;14.63;2.30;;;;;;;-144.05;74.33;56974.16;5015191;28;20088;-79
2023/10/30 07:55:49;;;;;;;9.80;1.67;;;15.40;99.90;;;-144.05;73.62;56997.50;5014875;28;20042;-78
2023/10/30 07:58:15;;;;;;;6.72;1.67;;;9.60;99.90;;;-144.05;73.07;56955.03;5014946;28;20025;-79
2023/10/30 08:00:41;;;;;;;8.48;1.48;;;9.10;99.90;;;-144.05;73.64;56995.38;5014900;28;20510;-78
2023/10/30 08:03:07;;;;;;;9.05;1.90;;;9.60;99.90;;;-144.05;72.98;56991.13;5014660;28;20041;-79
2023/10/30 08:05:33;;;;;;;7.40;1.88;;;15.30;99.90;;;-144.05;72.27;56997.50;5014559;28;20109;-80
2023/10/30 08:07:59;;;;;;;7.97;1.70;;;15.70;99.90;;;-144.05;72.59;56982.66;5015489;28;20022;-78
2023/10/30 08:10:28;;;;;;;10.05;1.95;;;15.70;99.90;;;-144.05;72.12;56980.53;4997016;28;20033;-80
2023/10/30 08:12:54;;;;;;;5.93;1.52;;;;;;;-144.05;71.14;56957.16;4979668;28;1090793;-77
2023/10/30 08:15:20;;;;;;;8.20;1.55;;;16.10;99.90;;;-144.05;70.79;56997.50;5015416;28;20034;-78
2023/10/30 08:17:46;;;;;;;9.43;2.28;;;15.80;99.90;;;-144.05;71.15;56959.28;5015245;28;20159;-78
2023/10/30 08:20:13;;;;;;;4.15;1.67;;;;;;;-144.05;70.03;56991.13;5014963;28;20030;-77
2023/10/30 08:22:39;;;;;;;11.43;1.60;;;10.80;99.90;;;-144.05;70.36;56974.16;5014685;28;20030;-80
2023/10/30 08:25:05;;;;;;;7.95;1.40;;;15.80;99.90;;;-144.05;68.86;56999.63;5015771;28;20044;-78
2023/10/30 08:27:33;;;;;;;8.20;1.88;;;10.90;99.90;;;-144.05;68.16;56967.78;5015931;28;20535;-80
2023/10/30 08:29:59;;;;;;;5.28;1.50;;;15.90;99.90;;;-144.05;66.40;56982.66;4997896;28;20037;-79
2023/10/30 08:32:26;;;;;;;6.75;1.80;;;;;;;-144.05;66.00;56984.78;5015175;28;20030;-79
2023/10/30 08:34:54;;;;;;;7.10;2.05;;;;;;;-144.05;65.38;56982.66;5015923;28;20044;-79
2023/10/30 08:37:20;;;;;;;7.82;2.00;;;11.90;99.90;;;-144.05;64.78;56984.78;5015011;28;20101;-80
2023/10/30 08:39:46;;;;;;;7.85;1.92;;;16.10;99.90;;;-144.05;65.33;56980.53;5015063;28;20040;-80
2023/10/30 08:42:12;;;;;;;6.85;1.38;;;16.00;99.90;;;-144.05;64.48;56976.28;5014142;28;20627;-79
2023/10/30 08:44:38;;;;;;;9.65;2.13;;;11.40;99.90;;;-144.05;67.06;56976.28;5014658;28;20038;-80
2023/10/30 08:47:04;;;;;;;2.97;1.52;;;11.40;99.90;;;-144.05;65.41;56980.53;5015250;28;20030;-79
2023/10/30 08:49:32;;;;;;;8.98;2.20;;;11.20;99.90;;;-144.05;65.32;56976.28;4997241;28;20109;-80
2023/10/30 08:51:58;;;;;;;4.68;1.23;;;16.30;99.90;;;-144.05;64.45;56993.25;5015283;28;20021;-78
2023/10/30 08:54:23;;;;;;;5.63;1.50;;;16.70;99.90;;;-144.05;64.40;56974.16;5014948;28;20076;-80
2023/10/30 08:56:49;;;;;;;7.40;2.35;;;16.50;99.90;;;-144.05;64.38;56982.66;5014788;28;20029;-78
2023/10/30 08:59:16;;;;;;;3.97;1.42;;;;;;;-144.05;63.27;56963.53;5014364;28;20022;-79
2023/10/30 09:01:41;;;;;;;5.35;1.40;;;12.00;99.90;;;-144.05;63.94;56959.28;4996747;28;20037;-80
2023/10/30 09:04:09;;;;;;;6.70;1.42;;;12.10;99.90;;;-144.05;64.71;56955.03;5017578;28;20033;-81
2023/10/30 09:06:35;;;;;;;4.65;1.60;;;12.20;99.90;;;-144.05;63.86;56965.66;5025160;28;20022;-82
2023/10/30 09:09:02;;;;;;;7.43;1.83;;;12.20;99.90;;;-144.05;65.16;56976.28;5023619;28;20048;-81
2023/10/30 09:11:27;;;;;;;4.07;1.52;;;12.30;99.90;;;-144.05;64.33;56969.91;5025202;28;20049;-79
2023/10/30 09:13:54;;;;;;;5.13;1.42;;;;;;;-144.05;63.77;56989.00;5015676;28;20056;-80
2023/10/30 09:16:20;;;;;;;3.17;1.40;;;;;;;-144.05;65.04;56969.91;5014824;28;20033;-79
2023/10/30 09:18:46;;;;;;;7.85;1.40;;;16.50;99.90;;;-144.05;65.08;56946.53;4996651;28;20030;-80
2023/10/30 09:21:14;;;;;;;9.65;1.45;;;;;;;-144.05;64.48;56967.78;5014459;28;20386;-80
2023/10/30 09:23:42;;;;;;;4.60;1.10;;;16.30;99.90;;;-144.05;65.13;56955.03;5013948;28;20030;-77
2023/10/30 09:26:10;;;;;;;6.72;1.52;;;12.00;99.90;;;-144.05;63.91;56997.50;5014101;28;20034;-76
2023/10/30 09:28:36;;;;;;;5.38;1.30;;;;;;;-144.05;64.11;56972.03;5014425;28;20060;-78
2023/10/30 09:31:03;;;;;;;3.90;1.40;;;16.60;99.90;;;-144.05;62.97;56991.13;5014096;28;20450;-79
2023/10/30 09:33:29;;;;;;;3.63;1.33;;;;;;;-144.05;63.04;56961.41;5014744;28;20050;-77
2023/10/30 09:35:56;;;;;;;5.03;1.65;;;;;;;-144.05;62.62;56946.53;5014328;28;20052;-79
2023/10/30 09:38:24;;;;;;;6.35;1.63;;;;;;;-144.05;63.98;57003.88;5015033;28;20030;-78
2023/10/30 09:41:02;;;;;;;5.03;1.40;;;16.40;99.90;;;-144.05;64.61;56969.91;5016235;28;20021;-79
2023/10/30 09:43:29;;;;;;;7.63;1.70;;;11.60;99.90;;;-144.05;64.24;56952.91;5018226;28;20050;-78
2023/10/30 09:46:02;;;;;;;3.90;1.00;;;11.90;99.90;;;-144.05;61.87;56972.03;5018438;28;20034;-79
2023/10/30 09:48:32;;;;;;;3.88;1.50;;;11.80;99.90;;;-144.05;62.95;56984.78;5018583;28;20030;-78
2023/10/30 09:51:00;;;;;;;5.03;1.15;;;16.60;99.90;;;-144.05;62.23;56976.28;5019152;28;20026;-79
2023/10/30 09:53:28;;;;;;;2.30;0.95;;;12.00;99.90;;;-144.05;62.33;56991.13;5019175;28;20057;-77
2023/10/30 09:55:56;;;;;;;6.32;1.48;;;15.40;99.90;;;-144.05;62.88;56993.25;5019067;28;20034;-78
2023/10/30 09:58:23;;;;;;;4.40;0.98;;;;;;;-144.05;61.94;56982.66;5018353;28;20372;-77
2023/10/30 10:00:49;;;;;;;2.80;0.98;;;12.40;99.90;;;-144.05;61.43;56972.03;5017718;28;20104;-78
2023/10/30 10:03:16;;;;;;;3.55;1.10;;;;;;;-144.05;60.55;56976.28;5005987;28;20037;-80
2023/10/30 10:05:42;;;;;;;4.03;1.52;;;;;;;-144.05;60.96;56963.53;5030141;28;20029;-80
2023/10/30 10:08:09;;;;;;;2.83;1.00;;;16.60;99.90;;;-144.05;59.84;56989.00;5035470;28;20040;-81
2023/10/30 10:11:02;;;;;;;3.83;1.48;;;15.40;99.90;;;-144.05;61.38;57006.00;5035031;28;20040;-80
2023/10/30 10:13:32;;;;;;;13.15;1.67;;;15.50;99.90;;;-144.05;60.85;56980.53;5013117;28;20041;-81
2023/10/30 10:16:00;;;;;;;2.97;1.00;;;17.00;99.90;;;-144.05;60.03;56974.16;5030688;28;20044;-80
2023/10/30 10:18:32;;;;;;;4.47;1.20;;;12.20;99.90;;;-144.05;59.36;56982.66;5021389;28;20022;-78
2023/10/30 10:21:08;;;;;;;4.53;0.80;;;12.50;99.90;;;-144.05;58.46;56997.50;5018225;28;20105;-78
2023/10/30 10:23:37;;;;;;;2.67;0.80;;;12.90;99.90;;;-144.05;57.75;56974.16;5018019;28;20094;-77
2023/10/30 10:26:14;;;;;;;5.28;1.10;;;12.90;99.90;;;-144.05;58.19;56976.28;5000444;28;20045;-79
2023/10/30 10:28:45;;;;;;;2.97;1.10;;;;;;;-144.05;57.83;56984.78;5010042;28;20104;-81
2023/10/30 10:31:11;;;;;;;5.35;0.90;;;;;;;-144.05;56.45;56980.53;5017065;28;20071;-79